Time;durP1;ratioP1;P1;durP2;ratioP2;P2;SDS_P1;SDS_P2;PMS_P1;PMS_P2;Temp;Humidity;BMP_temperature;BMP_pressure;BME280_temperature;BME280_humidity;BME280_pressure;Samples;Min_cycle;Max_cycle;Signal;HPM_P1;HPM_P2
2023/12/25 00:01:15;;;;;;;3.80;3.50;;;;;;;10.94;100.00;100460.91;5094497;27;20024;-59
2023/12/25 00:03:41;;;;;;;3.45;3.15;;;;;;;10.99;100.00;100452.59;5111587;28;20050;-59
2023/12/25 00:06:06;;;;;;;3.85;3.55;;;;;;;11.04;100.00;100450.47;5111833;27;20467;-59
2023/12/25 00:08:31;;;;;;;3.33;3.00;;;;;;;10.96;100.00;100456.31;5110933;28;20071;-59
2023/12/25 00:10:57;;;;;;;2.92;2.50;;;;;;;11.11;100.00;100460.53;5111265;28;20038;-58
2023/12/25 00:13:22;;;;;;;2.88;2.60;;;;;;;10.94;100.00;100452.91;5093955;28;20023;-59
2023/12/25 00:15:48;;;;;;;2.95;2.75;;;;;;;11.01;100.00;100458.66;5111812;28;20156;-59
2023/12/25 00:18:13;;;;;;;3.42;2.00;;;;;;;11.00;100.00;100462.28;5114378;27;20038;-59
2023/12/25 00:20:40;;;;;;;4.50;2.83;;;;;;;11.03;100.00;100454.94;5111615;28;20128;-58
2023/12/25 00:23:05;;;;;;;2.75;2.55;;;;;;;10.92;100.00;100428.25;5110718;28;20057;-59
2023/12/25 00:25:31;;;;;;;3.97;3.33;;;;;;;10.90;100.00;100436.31;5110955;27;20059;-59
2023/12/25 00:27:56;;;;;;;3.42;3.22;;;;;;;10.95;100.00;100437.81;5111874;27;20488;-58
2023/12/25 00:30:21;;;;;;;2.78;2.58;;;;;;;10.96;100.00;100429.72;5097119;28;20024;-59
2023/12/25 00:32:47;;;;;;;2.90;2.70;;;;;;;11.03;100.00;100448.75;5112926;28;20058;-58
2023/12/25 00:35:12;;;;;;;4.47;3.30;;;;;;;10.92;100.00;100425.59;5095724;28;20026;-58
2023/12/25 00:37:38;;;;;;;3.63;3.28;;;;;;;10.96;100.00;100434.19;5114992;28;20023;-58
2023/12/25 00:40:03;;;;;;;4.38;3.83;;;;;;;10.90;100.00;100436.31;5110642;28;20032;-59
2023/12/25 00:42:29;;;;;;;3.38;3.08;;;;;;;10.96;100.00;100445.69;5112245;28;20410;-58
2023/12/25 00:44:54;;;;;;;4.70;3.90;;;;;;;10.89;100.00;100453.25;5111044;28;20066;-59
2023/12/25 00:47:19;;;;;;;3.50;3.20;;;;;;;11.11;100.00;100451.72;5093180;28;20020;-59
2023/12/25 00:49:45;;;;;;;4.78;3.70;;;;;;;10.97;100.00;100447.41;5111135;28;20023;-58
2023/12/25 00:52:14;;;;;;;5.38;3.92;;;;;;;11.01;100.00;100458.66;5092819;28;20035;-58
2023/12/25 00:54:39;;;;;;;3.50;3.20;;;;;;;11.02;100.00;100466.53;5111608;28;20023;-59
2023/12/25 00:57:05;;;;;;;4.95;3.10;;;;;;;11.03;100.00;100464.72;5093068;28;20521;-59
2023/12/25 00:59:30;;;;;;;5.55;4.82;;;;;;;10.95;100.00;100462.63;5110742;28;20072;-59
2023/12/25 01:01:55;;;;;;;4.75;4.45;;;;;;;10.99;100.00;100474.72;5110700;28;20016;-59
2023/12/25 01:04:21;;;;;;;7.00;4.53;;;;;;;10.91;100.00;100472.63;5092392;28;20037;-59
2023/12/25 01:06:46;;;;;;;4.43;4.00;;;;;;;10.96;100.00;100466.13;5111104;28;20390;-58
2023/12/25 01:09:12;;;;;;;5.00;4.50;;;;;;;10.93;100.00;100477.84;5091931;28;20110;-59
2023/12/25 01:11:41;;;;;;;5.95;4.70;;;;;;;10.91;100.00;100474.41;5111324;28;20096;-59
2023/12/25 01:14:09;;;;;;;3.28;2.97;;;;;;;11.09;100.00;100482.94;5110988;28;20478;-58
2023/12/25 01:16:35;;;;;;;5.75;3.35;;;;;;;11.08;100.00;100487.38;5101387;28;20108;-59
2023/12/25 01:19:01;;;;;;;4.70;4.30;;;;;;;10.94;100.00;100476.00;5092325;28;20107;-58
2023/12/25 01:21:29;;;;;;;5.13;4.63;;;;;;;11.02;100.00;100479.84;5094351;28;20023;-59
2023/12/25 01:23:54;;;;;;;3.85;3.42;;;;;;;11.10;100.00;100477.50;5113923;28;20119;-59
2023/12/25 01:26:22;;;;;;;3.70;3.40;;;;;;;11.01;100.00;100472.81;5096497;28;20031;-59
2023/12/25 01:28:47;;;;;;;4.10;3.67;;;;;;;11.06;100.00;100476.00;5096728;28;20023;-58
2023/12/25 01:31:13;;;;;;;3.90;3.58;;;;;;;10.99;100.00;100468.56;5114484;27;20026;-59
2023/12/25 01:33:38;;;;;;;4.50;4.10;;;;;;;11.05;100.00;100482.28;5100169;27;20019;-58
2023/12/25 01:36:04;;;;;;;4.95;4.55;;;;;;;11.02;100.00;100473.66;5100601;27;20152;-59
2023/12/25 01:38:29;;;;;;;4.32;3.65;;;;;;;11.14;100.00;100483.44;5095659;27;20098;-58
2023/12/25 01:40:54;;;;;;;7.43;3.80;;;;;;;11.11;100.00;100491.63;5098899;28;20095;-59
2023/12/25 01:43:20;;;;;;;4.05;3.65;;;;;;;11.13;100.00;100495.91;5119662;27;20631;-58
2023/12/25 01:45:45;;;;;;;5.97;5.38;;;;;;;11.00;100.00;100488.88;5114392;28;20016;-59
2023/12/25 01:48:11;;;;;;;4.35;3.95;;;;;;;11.05;100.00;100478.78;5095811;28;20164;-59
2023/12/25 01:50:38;;;;;;;6.45;5.88;;;;;;;10.95;100.00;100475.06;5116074;27;20020;-59
2023/12/25 01:53:04;;;;;;;6.85;6.22;;;;;;;10.98;100.00;100467.72;5118379;27;20027;-58
2023/12/25 01:55:29;;;;;;;6.70;6.10;;;;;;;10.95;100.00;100483.91;5114117;28;20048;-59
2023/12/25 01:57:55;;;;;;;7.97;4.57;;;;;;;11.01;100.00;100472.81;5113854;28;20434;-59
2023/12/25 02:00:20;;;;;;;5.95;3.95;;;;;;;11.11;100.00;100489.81;5095452;28;20023;-58
2023/12/25 02:02:46;;;;;;;6.68;4.53;;;;;;;10.98;100.00;100483.69;5115045;27;20027;-59
2023/12/25 02:05:11;;;;;;;5.60;5.10;;;;;;;10.93;100.00;100496.47;5095431;28;20055;-59
2023/12/25 02:07:42;;;;;;;5.28;4.78;;;;;;;10.97;100.00;100475.78;5095757;28;20110;-59
2023/12/25 02:10:08;;;;;;;5.93;5.40;;;;;;;10.96;100.00;100490.91;5110806;28;20397;-59
2023/12/25 02:12:37;;;;;;;5.68;5.18;;;;;;;10.94;100.00;100476.84;5095516;28;20033;-58
2023/12/25 02:15:03;;;;;;;4.60;4.20;;;;;;;11.00;100.00;100496.88;5113664;28;20039;-59
2023/12/25 02:17:29;;;;;;;7.47;4.20;;;;;;;11.08;100.00;100486.53;5113981;28;20045;-59
2023/12/25 02:19:56;;;;;;;6.72;5.38;;;;;;;11.02;100.00;100493.13;5095108;28;20044;-58
2023/12/25 02:22:21;;;;;;;4.78;4.03;;;;;;;11.03;100.00;100516.16;5113500;28;20064;-59
2023/12/25 02:25:01;;;;;;;5.93;4.30;;;;;;;11.03;100.00;100521.47;5095979;28;20498;-59
2023/12/25 02:27:27;;;;;;;6.07;5.53;;;;;;;11.03;100.00;100505.50;5114999;27;20391;-59
2023/12/25 02:29:53;;;;;;;6.22;5.63;;;;;;;11.06;100.00;100507.06;5113238;27;20019;-59
2023/12/25 02:32:18;;;;;;;5.97;5.47;;;;;;;11.06;100.00;100505.28;5099121;27;20089;-58
2023/12/25 02:34:44;;;;;;;5.05;4.63;;;;;;;11.11;100.00;100513.78;5094964;28;20030;-58
2023/12/25 02:37:10;;;;;;;6.30;5.72;;;;;;;11.03;100.00;100502.84;5094527;28;20034;-58
2023/12/25 02:39:35;;;;;;;6.35;5.85;;;;;;;11.07;100.00;100496.34;5095688;28;20028;-58
2023/12/25 02:42:01;;;;;;;5.85;4.25;;;;;;;11.18;100.00;100508.03;5114019;27;20145;-58
2023/12/25 02:44:26;;;;;;;5.53;5.07;;;;;;;11.23;100.00;100508.56;5114392;27;20054;-59
2023/12/25 02:46:51;;;;;;;6.85;4.75;;;;;;;11.17;100.00;100509.00;5096450;28;20031;-58
2023/12/25 02:49:17;;;;;;;6.40;5.88;;;;;;;11.14;100.00;100502.06;5116420;27;20094;-58
2023/12/25 02:51:42;;;;;;;6.97;6.30;;;;;;;11.05;100.00;100498.25;5096513;28;20462;-58
2023/12/25 02:54:08;;;;;;;6.68;6.10;;;;;;;11.18;100.00;100510.69;5091735;28;20420;-58
2023/12/25 02:56:35;;;;;;;7.53;4.13;;;;;;;11.22;100.00;100520.16;5094841;28;20025;-58
2023/12/25 02:59:03;;;;;;;7.43;6.72;;;;;;;11.23;100.00;100524.53;5121492;27;20472;-58
2023/12/25 03:01:29;;;;;;;4.88;4.43;;;;;;;11.27;100.00;100516.22;5110591;28;20115;-59
2023/12/25 03:03:54;;;;;;;6.45;5.88;;;;;;;11.22;100.00;100536.97;5107905;27;20137;-59
2023/12/25 03:06:22;;;;;;;6.07;4.68;;;;;;;11.30;100.00;100547.09;5121578;27;20031;-58
2023/12/25 03:08:47;;;;;;;6.20;5.65;;;;;;;11.24;100.00;100526.25;5107781;28;20031;-58
2023/12/25 03:11:15;;;;;;;6.13;5.53;;;;;;;11.21;100.00;100515.81;5120013;27;20029;-58
2023/12/25 03:13:40;;;;;;;5.72;4.90;;;;;;;11.21;100.00;100529.97;5100590;27;20019;-59
2023/12/25 03:16:06;;;;;;;4.15;3.70;;;;;;;11.27;100.00;100526.03;5114826;27;20073;-59
2023/12/25 03:18:32;;;;;;;5.15;4.72;;;;;;;11.27;100.00;100521.53;5108139;27;20026;-59
2023/12/25 03:20:58;;;;;;;6.03;5.63;;;;;;;11.22;100.00;100513.03;5131631;27;20065;-58
2023/12/25 03:23:23;;;;;;;6.00;5.60;;;;;;;11.27;100.00;100518.03;5115416;27;20031;-58
2023/12/25 03:25:48;;;;;;;5.88;5.38;;;;;;;11.31;100.00;100517.69;5113399;28;20020;-59
2023/12/25 03:28:14;;;;;;;6.97;6.38;;;;;;;11.29;100.00;100524.94;5103727;27;20119;-59
2023/12/25 03:30:39;;;;;;;7.30;6.70;;;;;;;11.27;100.00;100512.72;5114763;27;20026;-58
2023/12/25 03:33:05;;;;;;;7.40;6.70;;;;;;;11.11;100.00;100491.63;5116740;27;20024;-59
2023/12/25 03:35:30;;;;;;;7.00;6.40;;;;;;;11.24;100.00;100529.75;5117286;27;20052;-59
2023/12/25 03:37:55;;;;;;;6.05;5.30;;;;;;;11.33;100.00;100531.75;5109184;27;20080;-58
2023/12/25 03:40:21;;;;;;;6.13;4.43;;;;;;;11.31;100.00;100540.81;5129730;27;20019;-58
2023/12/25 03:42:46;;;;;;;4.80;4.30;;;;;;;11.35;100.00;100536.97;5125149;27;20026;-58
2023/12/25 03:45:11;;;;;;;6.97;6.38;;;;;;;11.27;100.00;100540.19;5100846;27;20157;-58
2023/12/25 03:47:37;;;;;;;4.57;4.18;;;;;;;11.25;100.00;100547.41;5107672;28;20028;-58
2023/12/25 03:50:02;;;;;;;4.35;3.95;;;;;;;11.34;100.00;100540.59;5123456;27;20080;-59
2023/12/25 03:52:28;;;;;;;6.25;5.70;;;;;;;11.25;100.00;100543.91;5094487;28;20019;-58
2023/12/25 03:54:53;;;;;;;5.88;4.63;;;;;;;11.29;100.00;100538.25;5114538;27;20031;-59
2023/12/25 03:57:18;;;;;;;5.97;5.47;;;;;;;11.21;100.00;100558.41;5098213;28;20110;-59
2023/12/25 03:59:44;;;;;;;5.30;4.80;;;;;;;11.17;100.00;100554.25;5094147;28;20024;-58
2023/12/25 04:02:09;;;;;;;5.03;4.50;;;;;;;11.17;100.00;100547.09;5094240;28;20023;-59
2023/12/25 04:04:38;;;;;;;5.22;3.90;;;;;;;11.18;100.00;100561.25;5112570;28;20032;-58
2023/12/25 04:07:04;;;;;;;3.25;3.00;;;;;;;11.16;100.00;100557.88;5110927;27;20062;-58
2023/12/25 04:09:29;;;;;;;3.63;3.28;;;;;;;11.14;100.00;100561.47;5109986;28;20462;-59
2023/12/25 04:11:55;;;;;;;4.55;4.15;;;;;;;11.04;100.00;100555.09;5095538;27;20015;-58
2023/12/25 04:14:22;;;;;;;4.72;4.43;;;;;;;11.04;100.00;100547.13;5123347;27;20027;-59
2023/12/25 04:16:48;;;;;;;4.47;4.03;;;;;;;11.17;100.00;100539.13;5110158;27;20038;-59
2023/12/25 04:19:13;;;;;;;3.15;2.88;;;;;;;11.27;100.00;100536.69;5093682;28;20111;-58
2023/12/25 04:21:38;;;;;;;4.80;4.40;;;;;;;11.07;100.00;100528.28;5115684;27;20023;-58
2023/12/25 04:24:04;;;;;;;5.22;4.32;;;;;;;11.18;100.00;100534.63;5114853;27;20031;-58
2023/12/25 04:26:31;;;;;;;3.80;3.50;;;;;;;11.11;100.00;100531.56;5112187;28;20027;-58
2023/12/25 04:28:57;;;;;;;4.82;3.80;;;;;;;11.14;100.00;100526.03;5104722;27;20023;-59
2023/12/25 04:31:22;;;;;;;4.75;4.00;;;;;;;11.19;100.00;100528.38;5130122;27;20023;-60
2023/12/25 04:33:48;;;;;;;4.15;2.53;;;;;;;11.28;100.00;100541.03;5117905;27;20032;-58
2023/12/25 04:36:14;;;;;;;3.63;3.42;;;;;;;11.19;100.00;100529.22;5105631;28;20160;-58
2023/12/25 04:38:39;;;;;;;3.00;2.80;;;;;;;11.29;100.00;100524.09;5112781;28;20485;-59
2023/12/25 04:41:05;;;;;;;3.90;3.60;;;;;;;11.19;100.00;100528.38;5117888;28;20031;-58
2023/12/25 04:43:31;;;;;;;4.32;3.50;;;;;;;11.11;100.00;100516.44;5099768;28;20482;-58
2023/12/25 04:45:57;;;;;;;3.53;3.33;;;;;;;11.17;100.00;100520.47;5114101;28;20027;-58
2023/12/25 04:48:22;;;;;;;3.15;2.78;;;;;;;11.19;100.00;100529.22;5110202;28;20028;-58
2023/12/25 04:50:48;;;;;;;4.78;3.20;;;;;;;11.26;100.00;100513.66;5113682;28;20012;-59
2023/12/25 04:53:14;;;;;;;3.97;3.67;;;;;;;11.13;100.00;100517.19;5111368;28;20042;-58
2023/12/25 04:55:40;;;;;;;4.13;3.83;;;;;;;11.08;100.00;100518.47;5119649;27;20026;-58
2023/12/25 04:58:06;;;;;;;4.22;3.40;;;;;;;11.16;100.00;100507.28;5136951;27;20476;-58
2023/12/25 05:00:32;;;;;;;4.03;3.63;;;;;;;11.12;100.00;100506.66;5125560;27;20048;-59
2023/12/25 05:02:58;;;;;;;4.82;4.53;;;;;;;11.07;100.00;100496.34;5100117;28;20061;-58
2023/12/25 05:05:24;;;;;;;3.25;2.95;;;;;;;11.15;100.00;100495.81;5099069;27;20385;-58
2023/12/25 05:07:51;;;;;;;4.78;4.47;;;;;;;11.03;100.00;100507.28;5116577;27;20019;-58
2023/12/25 05:10:16;;;;;;;4.78;4.47;;;;;;;10.98;100.00;100496.16;5115401;27;20106;-58
2023/12/25 05:12:42;;;;;;;3.35;3.05;;;;;;;10.99;100.00;100506.66;5117572;27;20149;-59
2023/12/25 05:15:10;;;;;;;3.42;3.03;;;;;;;11.01;100.00;100503.91;5096280;28;20031;-58
2023/12/25 05:17:35;;;;;;;4.55;4.15;;;;;;;10.88;100.00;100503.91;5096736;27;20027;-58
2023/12/25 05:20:04;;;;;;;3.40;3.10;;;;;;;10.96;100.00;100509.53;5096445;28;20019;-59
2023/12/25 05:22:29;;;;;;;3.27;3.07;;;;;;;10.92;100.00;100516.06;5097588;27;20501;-59
2023/12/25 05:24:55;;;;;;;2.55;2.35;;;;;;;11.05;100.00;100508.03;5114591;28;20023;-58
2023/12/25 05:27:22;;;;;;;2.60;2.40;;;;;;;10.99;100.00;100503.16;5096352;28;20176;-59
2023/12/25 05:29:48;;;;;;;3.08;2.78;;;;;;;10.95;100.00;100491.88;5096050;28;20015;-58
2023/12/25 05:32:13;;;;;;;2.50;2.30;;;;;;;10.98;100.00;100501.47;5096404;28;20034;-58
2023/12/25 05:34:39;;;;;;;2.45;2.22;;;;;;;10.98;100.00;100493.47;5119394;27;20102;-58
2023/12/25 05:37:04;;;;;;;2.45;2.35;;;;;;;11.02;100.00;100502.94;5115304;27;20405;-58
2023/12/25 05:39:29;;;;;;;3.13;2.75;;;;;;;10.96;100.00;100495.38;5117415;27;20512;-58
2023/12/25 05:41:55;;;;;;;3.10;2.90;;;;;;;10.97;100.00;100508.59;5114539;27;20015;-58
2023/12/25 05:44:21;;;;;;;3.30;3.00;;;;;;;11.00;100.00;100503.06;5117602;27;20571;-58
2023/12/25 05:46:47;;;;;;;3.53;2.83;;;;;;;10.95;100.00;100510.50;5114547;28;20031;-59
2023/12/25 05:49:13;;;;;;;2.70;2.50;;;;;;;10.95;100.00;100517.66;5095711;28;20115;-58
2023/12/25 05:51:38;;;;;;;4.30;3.58;;;;;;;10.94;100.00;100510.59;5114469;28;20393;-58
2023/12/25 05:54:03;;;;;;;3.10;2.90;;;;;;;11.02;100.00;100502.94;5096335;28;20434;-58
2023/12/25 05:56:29;;;;;;;3.20;3.00;;;;;;;10.94;100.00;100498.16;5096151;28;20035;-58
2023/12/25 05:58:54;;;;;;;3.10;2.90;;;;;;;10.94;100.00;100494.63;5113708;27;20031;-58
2023/12/25 06:01:21;;;;;;;2.80;2.60;;;;;;;10.97;100.00;100505.06;5114474;27;20023;-58
2023/12/25 06:03:49;;;;;;;2.97;2.40;;;;;;;11.00;100.00;100503.06;5095559;28;20473;-58
2023/12/25 06:06:14;;;;;;;2.95;2.65;;;;;;;11.04;100.00;100507.19;5099084;28;20027;-58
2023/12/25 06:08:40;;;;;;;4.03;3.78;;;;;;;10.95;100.00;100497.22;5114346;27;20034;-59
2023/12/25 06:11:05;;;;;;;4.03;3.72;;;;;;;10.98;100.00;100509.44;5114075;27;20028;-58
2023/12/25 06:13:30;;;;;;;3.53;3.22;;;;;;;10.96;100.00;100506.03;5117492;27;20057;-58
2023/12/25 06:15:56;;;;;;;3.40;3.10;;;;;;;10.94;100.00;100503.47;5114151;28;20028;-58
2023/12/25 06:18:21;;;;;;;3.10;2.90;;;;;;;11.02;100.00;100502.94;5095189;28;20019;-58
2023/12/25 06:20:47;;;;;;;3.67;3.38;;;;;;;11.05;100.00;100516.88;5115909;27;20393;-58
2023/12/25 06:23:12;;;;;;;5.40;3.42;;;;;;;10.93;100.00;100507.09;5112940;27;20036;-58
2023/12/25 06:25:38;;;;;;;4.53;4.22;;;;;;;10.98;100.00;100525.41;5095341;28;20112;-58
2023/12/25 06:28:04;;;;;;;3.47;3.17;;;;;;;10.97;100.00;100510.38;5114450;27;20023;-58
2023/12/25 06:30:29;;;;;;;4.63;4.13;;;;;;;10.89;100.00;100509.13;5115267;27;20053;-58
2023/12/25 06:32:57;;;;;;;5.63;3.30;;;;;;;10.98;100.00;100506.78;5121594;27;20054;-58
2023/12/25 06:35:23;;;;;;;2.97;2.78;;;;;;;11.06;100.00;100501.75;5114992;27;20042;-58
2023/12/25 06:37:50;;;;;;;2.72;2.53;;;;;;;11.00;100.00;100507.50;5113414;27;20039;-58
2023/12/25 06:40:16;;;;;;;3.78;3.58;;;;;;;10.97;100.00;100507.72;5114922;27;20035;-58
2023/12/25 06:42:43;;;;;;;4.07;3.88;;;;;;;10.93;100.00;100508.91;5098920;28;20034;-58
2023/12/25 06:45:09;;;;;;;2.88;2.67;;;;;;;10.96;100.00;100511.34;5112294;28;20409;-58
2023/12/25 06:47:35;;;;;;;4.00;3.70;;;;;;;10.91;100.00;100517.88;5095084;28;20026;-58
2023/12/25 06:50:01;;;;;;;2.72;2.53;;;;;;;10.93;100.00;100512.41;5094848;28;20036;-58
2023/12/25 06:52:27;;;;;;;3.50;2.88;;;;;;;10.96;100.00;100514.88;5095721;27;20027;-58
2023/12/25 06:54:53;;;;;;;4.40;4.07;;;;;;;10.95;100.00;100518.50;5115670;27;20053;-59
2023/12/25 06:57:18;;;;;;;7.38;4.07;;;;;;;10.94;100.00;100514.09;5097373;28;20386;-58
2023/12/25 06:59:44;;;;;;;4.93;4.53;;;;;;;10.91;100.00;100511.66;5096105;28;20473;-58
2023/12/25 07:02:10;;;;;;;4.28;3.88;;;;;;;11.00;100.00;100505.72;5095709;28;20394;-59
2023/12/25 07:04:36;;;;;;;4.82;4.35;;;;;;;10.96;100.00;100503.38;5112723;28;20043;-59
2023/12/25 07:07:02;;;;;;;4.45;4.05;;;;;;;11.01;100.00;100506.56;5118230;27;20038;-58
2023/12/25 07:09:27;;;;;;;5.80;5.40;;;;;;;10.84;100.00;100497.09;5114110;27;20028;-58
2023/12/25 07:11:53;;;;;;;5.75;5.25;;;;;;;10.89;100.00;100513.59;5114160;27;20093;-58
2023/12/25 07:14:18;;;;;;;5.10;4.32;;;;;;;10.97;100.00;100515.72;5113533;27;20073;-58
2023/12/25 07:16:44;;;;;;;4.55;4.15;;;;;;;11.02;100.00;100525.06;5112045;28;20036;-58
2023/12/25 07:19:09;;;;;;;4.25;3.85;;;;;;;11.00;100.00;100523.47;5093104;28;20103;-59
2023/12/25 07:21:35;;;;;;;6.43;6.03;;;;;;;10.98;100.00;100528.91;5112812;27;20077;-58
2023/12/25 07:24:00;;;;;;;6.55;6.15;;;;;;;10.94;100.00;100529.22;5094316;28;20053;-58
2023/12/25 07:26:28;;;;;;;6.22;5.80;;;;;;;11.02;100.00;100534.88;5112339;28;20127;-58
2023/12/25 07:28:54;;;;;;;7.15;6.65;;;;;;;10.95;100.00;100537.13;5096559;28;20034;-58
2023/12/25 07:31:20;;;;;;;5.25;4.75;;;;;;;11.02;100.00;100529.56;5113701;27;20098;-58
2023/12/25 07:33:50;;;;;;;6.00;5.40;;;;;;;11.01;100.00;100554.47;5112328;28;20027;-59
2023/12/25 07:36:15;;;;;;;5.18;4.68;;;;;;;11.06;100.00;100549.66;5113462;27;20035;-58
2023/12/25 07:38:43;;;;;;;7.15;6.65;;;;;;;10.93;100.00;100535.53;5094802;27;20394;-58
2023/12/25 07:41:09;;;;;;;4.70;4.25;;;;;;;11.05;100.00;100545.31;5114246;27;20027;-58
2023/12/25 07:43:35;;;;;;;7.05;6.55;;;;;;;11.03;100.00;100552.53;5095128;28;20088;-59
2023/12/25 07:46:04;;;;;;;6.97;6.47;;;;;;;11.01;100.00;100554.47;5113557;27;20019;-58
2023/12/25 07:48:29;;;;;;;5.38;4.88;;;;;;;11.12;100.00;100560.75;5111910;28;20102;-58
2023/12/25 07:50:54;;;;;;;6.88;6.38;;;;;;;10.96;100.00;100548.63;5094096;28;20106;-58
2023/12/25 07:53:20;;;;;;;4.38;4.00;;;;;;;11.10;100.00;100561.81;5093475;28;20530;-58
2023/12/25 07:55:45;;;;;;;6.70;6.10;;;;;;;10.95;100.00;100565.53;5095683;28;20035;-58
2023/12/25 07:58:14;;;;;;;4.57;4.18;;;;;;;10.91;100.00;100557.78;5111868;27;20020;-58
2023/12/25 08:00:42;;;;;;;4.63;4.22;;;;;;;11.03;100.00;100573.81;5116275;27;20027;-59
2023/12/25 08:03:11;;;;;;;4.32;3.90;;;;;;;10.95;100.00;100562.88;5115015;27;20114;-58
2023/12/25 08:05:36;;;;;;;6.45;5.95;;;;;;;10.95;100.00;100579.69;5093319;28;20076;-58
2023/12/25 08:08:02;;;;;;;6.25;5.85;;;;;;;10.93;100.00;100583.41;5096180;28;20118;-58
2023/12/25 08:10:28;;;;;;;6.40;5.90;;;;;;;10.93;100.00;100586.91;5107827;27;20019;-59
2023/12/25 08:12:55;;;;;;;4.32;3.92;;;;;;;10.95;100.00;100595.66;5113737;27;20588;-59
2023/12/25 08:15:20;;;;;;;6.30;5.90;;;;;;;10.88;100.00;100591.69;5114586;27;20024;-59
2023/12/25 08:17:45;;;;;;;6.88;6.38;;;;;;;10.90;100.00;100592.44;5094028;28;20051;-59
2023/12/25 08:20:11;;;;;;;6.40;5.90;;;;;;;10.92;100.00;100601.19;5111651;28;20039;-59
2023/12/25 08:22:39;;;;;;;6.65;6.13;;;;;;;10.91;100.00;100602.13;5095282;27;20031;-58
2023/12/25 08:25:05;;;;;;;6.47;4.53;;;;;;;10.95;100.00;100598.31;5110607;27;20039;-58
2023/12/25 08:27:30;;;;;;;4.57;4.18;;;;;;;10.94;100.00;100611.72;5111342;28;20482;-58
2023/12/25 08:29:58;;;;;;;4.65;4.25;;;;;;;10.95;100.00;100605.47;5093116;28;20114;-59
2023/12/25 08:32:23;;;;;;;5.88;5.47;;;;;;;10.87;100.00;100598.00;5110876;28;20401;-58
2023/12/25 08:34:49;;;;;;;5.10;4.25;;;;;;;10.94;100.00;100601.06;5093892;28;20019;-58
2023/12/25 08:37:14;;;;;;;5.63;5.15;;;;;;;10.89;100.00;100607.56;5111026;28;20020;-59
2023/12/25 08:39:41;;;;;;;5.70;5.20;;;;;;;10.83;100.00;100597.34;5110922;28;20401;-58
2023/12/25 08:42:07;;;;;;;4.20;3.75;;;;;;;10.87;100.00;100604.16;5093091;28;20118;-58
2023/12/25 08:44:32;;;;;;;4.90;4.50;;;;;;;10.92;100.00;100609.19;5092726;28;20050;-58
2023/12/25 08:46:58;;;;;;;4.47;4.07;;;;;;;10.93;100.00;100607.38;5110942;28;20035;-59
2023/12/25 08:49:25;;;;;;;6.10;5.70;;;;;;;10.94;100.00;100611.72;5093165;28;20521;-58
2023/12/25 08:51:50;;;;;;;3.90;3.50;;;;;;;10.97;100.00;100619.50;5094570;28;20038;-58
2023/12/25 08:54:17;;;;;;;6.05;5.65;;;;;;;10.91;100.00;100618.09;5111945;28;20329;-59
2023/12/25 08:56:43;;;;;;;4.38;3.97;;;;;;;10.95;100.00;100632.06;5112242;28;20031;-59
2023/12/25 08:59:09;;;;;;;6.53;6.03;;;;;;;10.94;100.00;100633.84;5097044;28;20027;-58
2023/12/25 09:01:34;;;;;;;5.88;5.47;;;;;;;10.89;100.00;100630.69;5092952;28;20436;-59
2023/12/25 09:04:00;;;;;;;6.43;5.82;;;;;;;10.78;100.00;100595.97;5111063;28;20080;-59
2023/12/25 09:06:25;;;;;;;7.80;5.47;;;;;;;10.86;100.00;100612.25;5115741;28;20030;-58
2023/12/25 09:08:55;;;;;;;6.22;5.78;;;;;;;10.81;100.00;100599.25;5126801;27;20058;-58
2023/12/25 09:11:20;;;;;;;;;;;;;;;10.95;100.00;100619.63;5112496;28;21300;-59
2023/12/25 09:13:46;;;;;;;4.97;3.97;;;;;;;10.97;100.00;100623.03;5090639;28;19959;-58
2023/12/25 09:16:11;;;;;;;5.35;4.60;;;;;;;10.94;100.00;100625.88;5092668;28;20019;-59
2023/12/25 09:18:39;;;;;;;5.20;4.70;;;;;;;10.93;100.00;100621.50;5110922;28;20100;-59
2023/12/25 09:21:04;;;;;;;7.70;7.10;;;;;;;10.90;100.00;100646.53;5112353;28;20035;-58
2023/12/25 09:23:30;;;;;;;8.00;7.30;;;;;;;10.81;100.00;100633.00;5109731;28;20080;-59
2023/12/25 09:25:55;;;;;;;5.32;4.28;;;;;;;10.94;100.00;100652.47;5093108;28;20023;-59
2023/12/25 09:28:21;;;;;;;7.47;6.97;;;;;;;10.91;100.00;100660.66;5110950;28;20394;-58
2023/12/25 09:30:46;;;;;;;7.00;6.50;;;;;;;10.95;100.00;100666.66;5111488;28;20176;-58
2023/12/25 09:33:15;;;;;;;5.10;4.60;;;;;;;10.95;100.00;100675.50;5092887;28;20474;-58
2023/12/25 09:35:41;;;;;;;4.35;3.95;;;;;;;10.96;100.00;100684.31;5111614;28;20492;-58
2023/12/25 09:38:06;;;;;;;4.22;3.80;;;;;;;10.92;100.00;100681.03;5092890;28;20032;-58
2023/12/25 09:40:32;;;;;;;4.68;4.38;;;;;;;10.94;100.00;100686.22;5093450;28;20470;-58
2023/12/25 09:43:03;;;;;;;4.97;4.68;;;;;;;10.91;100.00;100692.59;5096528;28;20019;-59
2023/12/25 09:45:34;;;;;;;3.53;3.22;;;;;;;10.99;100.00;100689.44;5095611;28;20468;-58
2023/12/25 09:48:02;;;;;;;4.05;3.75;;;;;;;10.87;100.00;100686.63;5096187;28;20027;-58
2023/12/25 09:50:30;;;;;;;2.80;2.60;;;;;;;10.97;100.00;100688.69;5097215;27;20022;-59
2023/12/25 09:52:55;;;;;;;3.65;3.45;;;;;;;10.90;100.00;100688.25;5119378;27;20359;-59
2023/12/25 09:55:21;;;;;;;2.78;2.58;;;;;;;10.97;100.00;100675.38;5095086;28;20031;-59
2023/12/25 09:57:47;;;;;;;3.50;3.30;;;;;;;10.92;100.00;100673.03;5114384;28;20039;-59
2023/12/25 10:00:13;;;;;;;3.13;2.53;;;;;;;10.95;100.00;100666.66;5095745;28;20027;-59
2023/12/25 10:02:45;;;;;;;2.95;2.75;;;;;;;10.96;100.00;100674.53;5095841;28;20378;-59
2023/12/25 10:05:10;;;;;;;3.05;2.85;;;;;;;10.88;100.00;100666.19;5112348;28;20020;-59
2023/12/25 10:07:36;;;;;;;3.47;3.28;;;;;;;10.89;100.00;100670.59;5113745;28;20019;-59
2023/12/25 10:10:02;;;;;;;3.22;3.03;;;;;;;10.95;100.00;100677.31;5114170;28;20020;-58
2023/12/25 10:12:27;;;;;;;2.80;2.60;;;;;;;10.98;100.00;100682.41;5096248;28;20481;-58
2023/12/25 10:14:53;;;;;;;3.83;2.67;;;;;;;11.00;100.00;100688.47;5114504;28;20012;-59
2023/12/25 10:17:18;;;;;;;3.28;2.97;;;;;;;10.98;100.00;100693.06;5096425;28;20023;-59
2023/12/25 10:19:59;;;;;;;1.65;1.55;;;;;;;10.67;100.00;100692.44;5095745;28;20072;-59
2023/12/25 10:22:32;;;;;;;2.60;1.45;;;;;;;10.47;100.00;100701.72;5113347;28;20027;-58
2023/12/25 10:25:05;;;;;;;1.90;1.80;;;;;;;10.57;100.00;100713.47;5096837;27;20104;-58
2023/12/25 10:27:31;;;;;;;1.92;1.83;;;;;;;10.51;100.00;100716.53;5122958;27;20428;-58
2023/12/25 10:30:05;;;;;;;1.75;1.65;;;;;;;10.44;100.00;100705.44;5112684;28;20027;-58
2023/12/25 10:32:31;;;;;;;2.00;1.90;;;;;;;10.45;100.00;100690.34;5112906;28;20028;-58
2023/12/25 10:35:10;;;;;;;1.95;1.85;;;;;;;10.32;100.00;100705.34;5109598;27;20488;-58
2023/12/25 10:37:42;;;;;;;2.08;1.88;;;;;;;10.33;100.00;100699.97;5107997;28;20379;-58
2023/12/25 10:40:27;;;;;;;1.98;1.70;;;;;;;10.34;100.00;100704.31;5104177;28;20024;-59
2023/12/25 10:42:55;;;;;;;1.70;1.60;;;;;;;10.11;100.00;100679.16;5107390;27;20031;-59
2023/12/25 10:45:22;;;;;;;1.98;1.35;;;;;;;10.18;100.00;100699.09;5101656;28;20039;-60
2023/12/25 10:47:50;;;;;;;1.55;1.45;;;;;;;10.24;100.00;100704.03;5086474;27;20024;-59
2023/12/25 10:50:19;;;;;;;1.80;1.70;;;;;;;10.25;100.00;100707.53;5086337;28;20081;-58
2023/12/25 10:52:47;;;;;;;1.70;1.60;;;;;;;10.23;100.00;100704.09;5104279;28;20391;-58
2023/12/25 10:55:19;;;;;;;1.77;1.67;;;;;;;10.17;100.00;100707.16;5104026;28;20490;-58
2023/12/25 10:57:45;;;;;;;1.92;1.83;;;;;;;10.15;100.00;100696.66;5106706;27;20039;-59
2023/12/25 11:00:14;;;;;;;1.70;1.60;;;;;;;10.25;100.00;100694.25;5106397;28;20546;-58
2023/12/25 11:02:39;;;;;;;2.03;1.83;;;;;;;10.28;100.00;100695.88;5104255;27;20431;-59
2023/12/25 11:05:07;;;;;;;2.22;1.67;;;;;;;10.30;100.00;100705.47;5097498;27;20103;-59
2023/12/25 11:07:33;;;;;;;1.75;1.65;;;;;;;10.24;100.00;100714.66;5110615;27;20031;-59
2023/12/25 11:10:00;;;;;;;2.95;1.58;;;;;;;10.14;100.00;100705.53;5086122;28;20490;-59
2023/12/25 11:12:27;;;;;;;1.67;1.58;;;;;;;10.20;100.00;100715.78;5110520;27;20023;-59